Time;durP1;ratioP1;P1;durP2;ratioP2;P2;SDS_P1;SDS_P2;PMS_P1;PMS_P2;Temp;Humidity;BMP_temperature;BMP_pressure;BME280_temperature;BME280_humidity;BME280_pressure;Samples;Min_cycle;Max_cycle;Signal;HPM_P1;HPM_P2
2024/02/15 00:02:22;;;;;;;1.77;1.45;;;7.80;99.90;;;;;;5033056;28;20575;-60
2024/02/15 00:04:48;;;;;;;3.13;1.80;;;7.80;99.90;;;;;;5033623;28;20177;-60
2024/02/15 00:07:14;;;;;;;2.27;1.47;;;7.70;99.90;;;;;;5033474;28;20185;-60
2024/02/15 00:09:39;;;;;;;2.43;1.27;;;7.70;99.90;;;;;;5034175;28;20190;-60
2024/02/15 00:12:05;;;;;;;1.63;1.10;;;7.70;99.90;;;;;;5034010;28;20175;-59
2024/02/15 00:14:31;;;;;;;1.63;1.17;;;7.70;99.90;;;;;;5033982;28;20463;-59
2024/02/15 00:16:57;;;;;;;2.45;1.27;;;7.80;99.90;;;;;;5033709;28;20653;-59
2024/02/15 00:19:23;;;;;;;1.88;1.40;;;7.70;99.90;;;;;;5034187;28;20266;-59
2024/02/15 00:21:49;;;;;;;1.38;1.27;;;7.70;99.90;;;;;;5033836;28;20224;-60
2024/02/15 00:24:15;;;;;;;1.23;1.03;;;7.70;99.90;;;;;;5033704;28;20617;-59
2024/02/15 00:26:42;;;;;;;1.20;1.10;;;7.70;99.90;;;;;;5033144;28;20174;-60
2024/02/15 00:29:08;;;;;;;2.03;1.15;;;7.80;99.90;;;;;;5033850;28;20190;-59
2024/02/15 00:31:35;;;;;;;1.73;0.95;;;7.80;99.90;;;;;;5034051;28;20583;-60
2024/02/15 00:34:02;;;;;;;0.95;0.93;;;7.80;99.90;;;;;;5033806;28;20202;-59
2024/02/15 00:36:29;;;;;;;2.40;1.48;;;7.80;99.90;;;;;;5033386;28;20598;-60
2024/02/15 00:38:55;;;;;;;1.50;1.23;;;7.80;99.90;;;;;;5033687;28;20185;-60
2024/02/15 00:41:21;;;;;;;0.70;0.70;;;7.80;99.90;;;;;;5033266;28;20179;-59
2024/02/15 00:43:47;;;;;;;1.35;1.20;;;7.90;99.90;;;;;;5033323;28;20198;-59
2024/02/15 00:46:13;;;;;;;1.10;1.00;;;7.80;99.90;;;;;;5033242;28;20179;-60
2024/02/15 00:48:40;;;;;;;2.37;2.27;;;7.80;99.90;;;;;;5033036;28;20499;-60
2024/02/15 00:51:05;;;;;;;1.48;1.35;;;7.90;99.90;;;;;;5033401;28;20178;-60
2024/02/15 00:53:31;;;;;;;1.93;1.40;;;7.90;99.90;;;;;;5032829;28;20297;-60
2024/02/15 00:55:56;;;;;;;2.43;2.17;;;7.90;99.90;;;;;;5033388;28;20171;-59
2024/02/15 00:58:22;;;;;;;1.37;1.20;;;7.90;99.90;;;;;;5032587;28;20178;-60
2024/02/15 01:00:48;;;;;;;7.10;1.17;;;7.80;99.90;;;;;;5033048;28;20175;-60
2024/02/15 01:03:15;;;;;;;1.50;1.40;;;7.80;99.90;;;;;;5032598;28;20297;-60
2024/02/15 01:05:40;;;;;;;1.55;0.90;;;7.80;99.90;;;;;;5033129;28;20420;-59
2024/02/15 01:08:08;;;;;;;1.03;1.00;;;7.90;99.90;;;;;;5032601;28;20182;-59
2024/02/15 01:10:35;;;;;;;2.17;1.55;;;7.90;99.90;;;;;;5033538;28;20530;-59
2024/02/15 01:13:00;;;;;;;1.58;1.48;;;7.80;99.90;;;;;;5032811;28;20237;-60
2024/02/15 01:15:26;;;;;;;2.70;1.40;;;7.80;99.90;;;;;;5033044;28;20206;-59
2024/02/15 01:17:52;;;;;;;2.20;1.10;;;7.70;99.90;;;;;;5032341;28;20582;-60
2024/02/15 01:20:17;;;;;;;2.27;1.27;;;7.70;99.90;;;;;;5033007;28;20702;-59
2024/02/15 01:22:44;;;;;;;1.90;1.30;;;7.60;99.90;;;;;;5032646;28;20719;-60
2024/02/15 01:25:10;;;;;;;2.65;1.20;;;7.60;99.90;;;;;;5038928;28;20183;-60
2024/02/15 01:27:36;;;;;;;1.20;0.90;;;7.60;99.90;;;;;;5072345;28;20208;-60
2024/02/15 01:30:04;;;;;;;1.47;1.37;;;7.60;99.90;;;;;;5072607;28;20181;-60
2024/02/15 01:32:30;;;;;;;0.82;0.70;;;7.70;99.90;;;;;;5072500;28;20198;-60
2024/02/15 01:34:56;;;;;;;1.27;1.17;;;7.80;99.90;;;;;;5072875;28;20185;-59
2024/02/15 01:37:22;;;;;;;3.10;1.70;;;7.70;99.90;;;;;;5072166;28;20205;-60
2024/02/15 01:39:48;;;;;;;3.30;1.97;;;7.80;99.90;;;;;;5072874;28;20166;-59
2024/02/15 01:42:14;;;;;;;2.53;1.77;;;7.90;99.90;;;;;;5072419;28;20972;-59
2024/02/15 01:44:40;;;;;;;1.58;1.48;;;7.90;99.90;;;;;;5072803;28;20168;-59
2024/02/15 01:47:08;;;;;;;2.28;1.65;;;7.90;99.90;;;;;;5072200;28;20703;-60
2024/02/15 01:49:34;;;;;;;3.97;1.38;;;8.00;99.90;;;;;;5072003;28;20169;-59
2024/02/15 01:52:02;;;;;;;1.80;1.30;;;8.10;99.90;;;;;;5072208;28;20664;-59
2024/02/15 01:54:28;;;;;;;3.22;2.90;;;8.20;99.90;;;;;;5072174;28;20173;-59
2024/02/15 01:56:54;;;;;;;1.35;1.25;;;8.10;99.90;;;;;;5071748;28;20197;-60
2024/02/15 01:59:22;;;;;;;1.73;1.60;;;8.10;99.90;;;;;;5072133;28;20170;-59
2024/02/15 02:01:49;;;;;;;3.70;1.80;;;8.00;99.90;;;;;;5072886;28;20216;-60
2024/02/15 02:04:15;;;;;;;0.95;0.95;;;8.00;99.90;;;;;;5071260;28;20260;-59
2024/02/15 02:06:41;;;;;;;3.45;1.13;;;7.90;99.90;;;;;;5071820;28;20178;-60
2024/02/15 02:09:12;;;;;;;4.13;1.43;;;7.80;99.90;;;;;;5072388;28;20261;-59
2024/02/15 02:11:38;;;;;;;2.13;1.92;;;7.80;99.90;;;;;;5072603;28;20177;-59
2024/02/15 02:14:04;;;;;;;3.43;1.53;;;7.80;99.90;;;;;;5072484;28;20330;-59
2024/02/15 02:16:32;;;;;;;1.37;1.20;;;7.80;99.90;;;;;;5071724;28;20447;-59
2024/02/15 02:18:58;;;;;;;5.88;0.90;;;7.80;99.90;;;;;;5072281;28;20195;-59
2024/02/15 02:21:28;;;;;;;3.33;1.27;;;7.60;99.90;;;;;;5071990;28;20576;-59
2024/02/15 02:23:58;;;;;;;3.13;2.03;;;7.60;99.90;;;;;;5072082;28;20569;-59
2024/02/15 02:26:25;;;;;;;2.25;1.65;;;7.50;99.90;;;;;;5075267;28;20257;-60
2024/02/15 02:28:54;;;;;;;2.05;1.60;;;7.40;99.90;;;;;;5075866;28;20264;-59
2024/02/15 02:31:21;;;;;;;1.77;1.67;;;7.40;99.90;;;;;;5076139;28;20180;-59
2024/02/15 02:33:51;;;;;;;3.00;1.50;;;7.30;99.90;;;;;;5075738;28;20258;-60
2024/02/15 02:36:18;;;;;;;1.30;1.20;;;7.20;99.90;;;;;;5076189;28;20200;-60
2024/02/15 02:38:45;;;;;;;2.30;2.10;;;7.10;99.90;;;;;;5075324;28;20172;-59
2024/02/15 02:41:12;;;;;;;2.53;1.98;;;7.10;99.90;;;;;;5075378;28;20237;-59
2024/02/15 02:43:41;;;;;;;2.60;1.50;;;7.20;99.90;;;;;;5075820;28;20199;-59
2024/02/15 02:46:06;;;;;;;2.50;1.63;;;7.20;99.90;;;;;;5075334;28;20653;-59
2024/02/15 02:48:32;;;;;;;1.30;1.20;;;7.10;99.90;;;;;;5075519;28;20261;-59
2024/02/15 02:50:58;;;;;;;3.67;1.60;;;7.00;99.90;;;;;;5075479;28;20406;-59
2024/02/15 02:53:24;;;;;;;1.73;1.27;;;7.10;99.90;;;;;;5075326;28;20185;-60
2024/02/15 02:55:51;;;;;;;1.93;1.30;;;7.10;99.90;;;;;;5075294;28;20910;-60
2024/02/15 02:58:17;;;;;;;1.25;1.15;;;7.10;99.90;;;;;;5074711;28;20203;-59
2024/02/15 03:00:43;;;;;;;1.30;1.03;;;7.00;99.90;;;;;;5075449;28;20176;-59
2024/02/15 03:03:09;;;;;;;2.83;1.10;;;7.00;99.90;;;;;;5075212;28;20282;-59
2024/02/15 03:05:35;;;;;;;1.95;1.45;;;6.90;99.90;;;;;;5075510;28;20199;-59
2024/02/15 03:08:00;;;;;;;5.07;1.60;;;6.90;99.90;;;;;;5075078;28;20177;-59
2024/02/15 03:10:26;;;;;;;1.67;1.50;;;6.90;99.90;;;;;;5075452;28;20371;-59
2024/02/15 03:12:52;;;;;;;4.60;1.40;;;6.90;99.90;;;;;;5075093;28;20543;-58
2024/02/15 03:15:18;;;;;;;1.35;1.10;;;6.80;99.90;;;;;;5075088;28;20172;-59
2024/02/15 03:17:46;;;;;;;2.05;1.55;;;6.80;99.90;;;;;;5074638;28;20293;-59
2024/02/15 03:20:20;;;;;;;1.30;1.20;;;6.80;99.90;;;;;;5074981;28;20190;-59
2024/02/15 03:22:52;;;;;;;1.10;1.00;;;6.80;99.90;;;;;;5075011;28;20199;-59
2024/02/15 03:25:18;;;;;;;3.53;1.25;;;6.70;99.90;;;;;;5074864;28;20185;-59
2024/02/15 03:27:43;;;;;;;1.83;0.80;;;6.80;99.90;;;;;;5074237;28;20176;-60
2024/02/15 03:30:10;;;;;;;2.30;0.80;;;6.80;99.90;;;;;;5074650;28;20176;-59
2024/02/15 03:32:36;;;;;;;1.20;1.00;;;6.70;99.90;;;;;;5074322;28;20204;-59
2024/02/15 03:35:02;;;;;;;1.20;0.70;;;6.70;99.90;;;;;;5074718;28;20271;-59
2024/02/15 03:37:28;;;;;;;1.20;0.90;;;6.60;99.90;;;;;;5073142;28;20689;-60
2024/02/15 03:39:54;;;;;;;2.70;1.70;;;6.70;99.90;;;;;;5074240;28;20413;-59
2024/02/15 03:42:20;;;;;;;1.55;1.35;;;6.70;99.90;;;;;;5072975;28;20564;-59
2024/02/15 03:44:47;;;;;;;1.00;1.00;;;6.70;99.90;;;;;;5074304;28;20176;-59
2024/02/15 03:47:14;;;;;;;2.10;0.90;;;6.50;99.90;;;;;;5074057;28;20182;-59
2024/02/15 03:49:42;;;;;;;4.63;1.05;;;6.50;99.90;;;;;;5074436;28;20192;-59
2024/02/15 03:52:10;;;;;;;1.52;1.02;;;6.50;99.90;;;;;;5074064;28;20181;-59
2024/02/15 03:54:36;;;;;;;2.08;1.00;;;6.40;99.90;;;;;;5074011;28;20564;-57
2024/02/15 03:57:01;;;;;;;2.43;1.60;;;6.40;99.90;;;;;;5073736;28;20210;-60
2024/02/15 03:59:27;;;;;;;2.60;1.00;;;6.30;99.90;;;;;;5073759;28;20407;-59
2024/02/15 04:01:53;;;;;;;1.60;1.20;;;6.40;99.90;;;;;;5074307;28;20630;-59
2024/02/15 04:04:22;;;;;;;1.20;0.88;;;6.40;99.90;;;;;;5073739;28;20211;-60
2024/02/15 04:06:51;;;;;;;1.85;0.80;;;6.60;99.90;;;;;;5073801;28;20190;-59
2024/02/15 04:09:20;;;;;;;2.20;1.20;;;6.60;99.90;;;;;;5074351;28;20636;-59
2024/02/15 04:11:49;;;;;;;1.15;1.05;;;6.50;99.90;;;;;;5055904;28;20246;-60
2024/02/15 04:14:18;;;;;;;0.80;0.80;;;6.50;99.90;;;;;;5073998;28;20206;-59
2024/02/15 04:16:44;;;;;;;2.00;1.10;;;6.50;99.90;;;;;;5072407;28;20201;-59
2024/02/15 04:19:10;;;;;;;2.90;2.03;;;6.50;99.90;;;;;;5071648;28;20571;-60
2024/02/15 04:21:36;;;;;;;1.73;1.63;;;6.40;99.90;;;;;;5073372;28;20490;-59
2024/02/15 04:24:02;;;;;;;2.13;1.50;;;6.40;99.90;;;;;;5073260;28;20214;-60
2024/02/15 04:26:29;;;;;;;1.37;1.27;;;6.40;99.90;;;;;;5073463;28;20180;-59
2024/02/15 04:28:57;;;;;;;1.50;1.20;;;6.30;99.90;;;;;;5073824;28;20579;-59
2024/02/15 04:31:26;;;;;;;3.60;1.83;;;6.30;99.90;;;;;;5073607;28;20186;-59
2024/02/15 04:33:52;;;;;;;1.67;1.30;;;6.30;99.90;;;;;;5073587;28;20723;-59
2024/02/15 04:36:23;;;;;;;2.03;1.20;;;6.20;99.90;;;;;;5073565;28;20228;-59
2024/02/15 04:38:52;;;;;;;1.00;0.70;;;6.10;99.90;;;;;;5073406;28;20174;-59
2024/02/15 04:41:23;;;;;;;1.98;0.90;;;6.20;99.90;;;;;;5073774;28;20636;-59
2024/02/15 04:43:52;;;;;;;0.75;0.75;;;6.20;99.90;;;;;;5073200;28;20183;-59
2024/02/15 04:46:21;;;;;;;2.80;1.70;;;6.10;99.90;;;;;;5072832;28;20234;-59
2024/02/15 04:48:49;;;;;;;1.50;1.13;;;6.20;99.90;;;;;;5073083;28;20171;-59
2024/02/15 04:51:16;;;;;;;2.30;1.75;;;6.20;99.90;;;;;;5073013;28;20202;-59
2024/02/15 04:53:42;;;;;;;6.82;3.17;;;6.10;99.90;;;;;;5072766;28;20257;-59
2024/02/15 04:56:13;;;;;;;3.08;2.85;;;6.10;99.90;;;;;;5073150;28;20212;-59
2024/02/15 04:58:45;;;;;;;2.78;1.52;;;6.20;99.90;;;;;;5072755;28;20200;-59
2024/02/15 05:01:15;;;;;;;1.63;1.48;;;6.30;99.90;;;;;;5072912;28;20176;-59
2024/02/15 05:03:42;;;;;;;6.68;2.75;;;6.30;99.90;;;;;;5072527;28;20290;-59
2024/02/15 05:06:09;;;;;;;3.50;2.25;;;6.20;99.90;;;;;;5072872;28;20553;-59
2024/02/15 05:08:42;;;;;;;7.32;2.85;;;6.30;99.90;;;;;;5072736;28;20193;-59
2024/02/15 05:11:14;;;;;;;6.85;3.70;;;6.30;99.90;;;;;;5072919;28;20183;-59
2024/02/15 05:13:39;;;;;;;5.45;2.90;;;6.20;99.90;;;;;;5072273;28;20771;-59
2024/02/15 05:16:05;;;;;;;2.83;2.53;;;6.30;99.90;;;;;;5072438;28;20661;-59
2024/02/15 05:18:31;;;;;;;2.63;1.90;;;6.30;99.90;;;;;;5072491;28;20179;-60
2024/02/15 05:20:57;;;;;;;2.33;1.90;;;6.30;99.90;;;;;;5072503;28;20629;-59
2024/02/15 05:23:23;;;;;;;4.60;2.27;;;6.30;99.90;;;;;;5072379;28;20195;-59
2024/02/15 05:25:48;;;;;;;3.93;2.20;;;6.40;99.90;;;;;;5072291;28;20421;-59
2024/02/15 05:28:14;;;;;;;4.60;2.27;;;6.20;99.90;;;;;;5072113;28;20211;-59
2024/02/15 05:30:39;;;;;;;1.87;1.77;;;6.20;99.90;;;;;;5072035;28;20204;-59
2024/02/15 05:33:10;;;;;;;2.43;1.40;;;6.20;99.90;;;;;;5072133;28;20679;-59
2024/02/15 05:35:36;;;;;;;1.20;1.20;;;6.30;99.90;;;;;;5071966;28;20248;-60
2024/02/15 05:38:04;;;;;;;1.35;1.25;;;6.40;99.90;;;;;;5071856;28;20676;-59
2024/02/15 05:40:32;;;;;;;4.10;1.00;;;6.30;99.90;;;;;;5071917;28;20262;-59
2024/02/15 05:42:58;;;;;;;2.53;2.33;;;6.30;99.90;;;;;;5071915;28;20617;-59
2024/02/15 05:45:26;;;;;;;1.85;1.23;;;6.20;99.90;;;;;;5072110;28;20167;-59
2024/02/15 05:47:52;;;;;;;6.70;2.88;;;6.10;99.90;;;;;;5071927;28;20175;-59
2024/02/15 05:50:21;;;;;;;1.65;1.55;;;6.00;99.90;;;;;;5071925;28;20177;-59
2024/02/15 05:52:47;;;;;;;1.88;1.23;;;6.00;99.90;;;;;;5071824;28;20250;-59
2024/02/15 05:55:16;;;;;;;1.50;1.40;;;6.10;99.90;;;;;;5071745;28;20178;-59
2024/02/15 05:57:45;;;;;;;3.42;2.85;;;6.10;99.90;;;;;;5071726;28;20200;-59
2024/02/15 06:00:12;;;;;;;6.00;2.42;;;6.00;99.90;;;;;;5071843;28;20182;-59
2024/02/15 06:02:38;;;;;;;2.33;2.13;;;6.00;99.90;;;;;;5072318;28;20694;-59
2024/02/15 06:05:04;;;;;;;10.13;2.50;;;5.90;99.90;;;;;;5072074;28;20183;-58
2024/02/15 06:07:31;;;;;;;5.05;1.85;;;5.90;99.90;;;;;;5071863;28;20465;-59
2024/02/15 06:10:02;;;;;;;3.60;2.15;;;6.00;99.90;;;;;;5071687;28;20198;-58
2024/02/15 06:12:28;;;;;;;1.30;0.90;;;6.00;99.90;;;;;;5071794;28;20243;-59
2024/02/15 06:14:55;;;;;;;1.15;0.98;;;5.90;99.90;;;;;;5071699;28;20572;-59
2024/02/15 06:17:20;;;;;;;1.00;1.00;;;5.80;99.90;;;;;;5071297;28;20204;-59
2024/02/15 06:19:46;;;;;;;3.77;1.57;;;5.80;99.90;;;;;;5071331;28;20655;-58
2024/02/15 06:22:12;;;;;;;2.40;1.90;;;5.70;99.90;;;;;;5056182;28;20252;-60
2024/02/15 06:24:39;;;;;;;1.52;1.27;;;5.70;99.90;;;;;;5051675;28;20176;-59
2024/02/15 06:27:05;;;;;;;2.10;1.40;;;5.70;99.90;;;;;;5051686;28;20552;-59
2024/02/15 06:40:28;;;;;;;1.60;1.50;;;5.90;99.90;;;;;;5051225;28;20174;-59
2024/02/15 06:42:54;;;;;;;1.92;1.45;;;6.00;99.90;;;;;;5051165;28;20198;-59
2024/02/15 06:45:20;;;;;;;1.37;1.00;;;6.00;99.90;;;;;;5051257;28;20257;-59
2024/02/15 06:47:45;;;;;;;2.63;1.80;;;6.00;99.90;;;;;;5051120;28;20188;-62
2024/02/15 06:50:14;;;;;;;1.20;1.10;;;6.00;99.90;;;;;;5059775;28;20231;-62
2024/02/15 06:52:43;;;;;;;4.00;1.40;;;6.10;99.90;;;;;;5070499;28;20423;-62
2024/02/15 06:55:11;;;;;;;1.02;1.02;;;6.30;99.90;;;;;;5070440;28;20176;-62
2024/02/15 06:57:40;;;;;;;0.88;0.60;;;6.50;99.90;;;;;;5070091;28;20204;-62
2024/02/15 07:00:09;;;;;;;1.48;0.73;;;6.60;99.90;;;;;;5070744;28;20173;-62
2024/02/15 07:02:35;;;;;;;1.60;1.00;;;6.70;99.90;;;;;;5070576;28;20200;-62
2024/02/15 07:05:02;;;;;;;1.95;0.75;;;6.70;99.90;;;;;;5070708;28;20278;-62
2024/02/15 07:07:28;;;;;;;1.45;0.80;;;6.80;99.90;;;;;;5070546;28;20250;-62
2024/02/15 07:09:54;;;;;;;1.40;1.27;;;6.90;99.90;;;;;;5070650;28;20193;-62
2024/02/15 07:12:21;;;;;;;0.77;0.77;;;7.00;99.90;;;;;;5071723;28;20278;-62
2024/02/15 07:14:47;;;;;;;0.80;0.80;;;7.20;99.90;;;;;;5074246;28;20165;-62
2024/02/15 07:17:13;;;;;;;3.13;1.52;;;7.10;99.90;;;;;;5073738;28;20213;-62
2024/02/15 07:19:44;;;;;;;2.03;1.38;;;7.10;99.90;;;;;;5073967;28;20169;-62
2024/02/15 07:22:10;;;;;;;1.45;1.35;;;7.20;99.90;;;;;;5074009;28;20689;-62
2024/02/15 07:24:38;;;;;;;0.60;0.60;;;7.30;99.90;;;;;;5074089;28;20170;-62
2024/02/15 07:27:04;;;;;;;2.10;1.10;;;7.30;99.90;;;;;;5073713;28;20195;-62
2024/02/15 07:29:32;;;;;;;1.55;1.45;;;7.40;99.90;;;;;;5073907;28;20173;-62
2024/02/15 07:31:59;;;;;;;1.35;0.70;;;7.60;99.90;;;;;;5073863;28;20165;-62
2024/02/15 07:34:26;;;;;;;1.35;1.17;;;7.70;99.90;;;;;;5073906;28;20205;-62
2024/02/15 07:36:52;;;;;;;4.55;1.33;;;7.90;99.90;;;;;;5073475;28;20604;-62
2024/02/15 07:39:24;;;;;;;1.43;1.10;;;8.10;99.90;;;;;;5073786;28;20162;-62
2024/02/15 07:41:51;;;;;;;1.73;0.80;;;8.20;99.90;;;;;;5073875;28;20412;-62
2024/02/15 07:44:17;;;;;;;1.55;1.10;;;8.40;99.90;;;;;;5073681;28;20237;-62
2024/02/15 07:46:43;;;;;;;1.15;1.05;;;8.60;99.90;;;;;;5073315;28;20173;-62
2024/02/15 07:49:09;;;;;;;1.13;1.10;;;8.70;99.90;;;;;;5073587;28;20178;-62
2024/02/15 07:51:35;;;;;;;11.63;2.10;;;8.80;99.90;;;;;;5073487;28;20174;-62
2024/02/15 07:54:01;;;;;;;1.63;1.45;;;8.80;99.90;;;;;;5073223;28;20197;-62
2024/02/15 07:56:27;;;;;;;2.10;1.20;;;9.00;99.90;;;;;;5073268;28;20202;-62
2024/02/15 07:58:53;;;;;;;4.73;1.07;;;9.20;99.90;;;;;;5073504;28;20691;-62
2024/02/15 08:01:22;;;;;;;2.55;1.67;;;9.20;99.90;;;;;;5073843;28;20547;-62
2024/02/15 08:03:48;;;;;;;3.42;2.10;;;9.40;99.90;;;;;;5072990;28;20217;-62
2024/02/15 08:06:15;;;;;;;3.75;2.05;;;9.40;99.90;;;;;;5073527;28;20662;-62
2024/02/15 08:08:44;;;;;;;4.80;2.65;;;9.50;99.90;;;;;;5073037;28;20173;-62
2024/02/15 08:11:14;;;;;;;3.55;1.92;;;9.50;99.90;;;;;;5073443;28;20253;-62
2024/02/15 08:13:51;;;;;;;1.70;1.60;;;9.50;99.90;;;;;;5073624;28;20339;-62
2024/02/15 08:16:18;;;;;;;3.80;1.30;;;9.40;99.90;;;;;;5073001;28;20188;-62
2024/02/15 08:18:45;;;;;;;1.95;1.85;;;9.40;99.90;;;;;;5073497;28;20200;-62
2024/02/15 08:21:11;;;;;;;2.35;1.20;;;9.40;99.90;;;;;;5073177;28;20178;-62
2024/02/15 08:23:37;;;;;;;1.87;1.07;;;9.50;99.90;;;;;;5072945;28;20364;-62
2024/02/15 08:26:03;;;;;;;2.73;2.30;;;9.60;99.90;;;;;;5072860;28;20896;-62
2024/02/15 08:28:29;;;;;;;4.30;3.90;;;9.40;99.90;;;;;;5073228;28;20176;-62
2024/02/15 08:30:58;;;;;;;2.23;2.03;;;9.40;99.90;;;;;;5073204;28;20416;-62
2024/02/15 08:33:24;;;;;;;3.90;2.10;;;9.50;99.90;;;;;;5072722;28;20722;-62
2024/02/15 08:35:50;;;;;;;2.30;2.20;;;9.70;99.90;;;;;;5072816;28;20212;-62
2024/02/15 08:38:17;;;;;;;4.00;3.00;;;9.80;99.90;;;;;;5072726;28;20225;-62
2024/02/15 08:40:45;;;;;;;3.00;2.63;;;9.90;99.90;;;;;;5072992;28;20403;-62
2024/02/15 08:43:11;;;;;;;3.45;2.70;;;10.00;99.90;;;;;;5058442;28;20198;-62
2024/02/15 08:45:37;;;;;;;4.15;3.05;;;9.90;99.90;;;;;;5052652;28;20172;-62
2024/02/15 08:48:04;;;;;;;2.27;2.10;;;10.00;99.90;;;;;;5052473;28;20549;-62
2024/02/15 08:50:30;;;;;;;2.03;1.93;;;10.00;99.90;;;;;;5034104;28;20181;-62
2024/02/15 08:52:56;;;;;;;2.40;2.00;;;10.10;99.90;;;;;;5052677;28;20424;-62
2024/02/15 08:55:26;;;;;;;4.10;2.00;;;10.20;99.90;;;;;;5051379;28;20412;-62
2024/02/15 08:57:53;;;;;;;2.90;2.00;;;10.30;99.90;;;;;;5052236;28;20455;-62
2024/02/15 09:00:19;;;;;;;3.25;2.67;;;10.50;99.90;;;;;;5052169;28;20445;-62
2024/02/15 09:02:46;;;;;;;2.50;2.30;;;10.60;99.90;;;;;;5052294;28;20534;-62
2024/02/15 09:05:15;;;;;;;4.27;3.07;;;10.70;99.90;;;;;;5052673;28;20420;-62
2024/02/15 09:07:42;;;;;;;4.03;2.10;;;10.80;99.90;;;;;;5052254;28;20423;-62
2024/02/15 09:10:10;;;;;;;3.80;1.77;;;11.00;99.90;;;;;;5052628;28;20921;-62
2024/02/15 09:12:39;;;;;;;1.60;1.50;;;11.30;99.90;;;;;;5052326;28;20523;-62
2024/02/15 09:15:07;;;;;;;2.00;1.60;;;11.60;99.90;;;;;;5052560;28;20405;-62
2024/02/15 09:17:38;;;;;;;1.70;1.60;;;11.80;99.90;;;;;;5052680;28;20450;-62
2024/02/15 09:20:06;;;;;;;2.30;1.97;;;12.00;99.90;;;;;;5052804;28;20415;-62
2024/02/15 09:22:32;;;;;;;1.97;1.87;;;12.40;99.90;;;;;;5052644;28;20433;-62
2024/02/15 09:24:58;;;;;;;3.60;2.50;;;12.90;99.90;;;;;;5052291;28;20910;-62
2024/02/15 09:27:24;;;;;;;4.83;4.37;;;13.40;99.90;;;;;;5051503;28;20509;-62
2024/02/15 09:29:49;;;;;;;3.90;3.00;;;14.00;99.90;;;;;;5051692;28;20188;-62
2024/02/15 09:32:15;;;;;;;4.47;3.67;;;14.50;99.90;;;;;;5051688;28;20261;-62
2024/02/15 09:34:41;;;;;;;4.80;3.70;;;14.90;99.90;;;;;;5050827;28;20170;-62
2024/02/15 09:37:07;;;;;;;6.10;2.50;;;15.30;99.90;;;;;;5051422;28;20277;-62
2024/02/15 09:39:33;;;;;;;5.13;3.20;;;15.60;99.60;;;;;;5051634;28;20440;-62
2024/02/15 09:41:58;;;;;;;3.17;2.63;;;15.90;99.30;;;;;;5051429;28;20840;-62
2024/02/15 09:44:28;;;;;;;2.77;2.57;;;16.20;97.40;;;;;;5051323;28;20197;-62
2024/02/15 09:47:04;;;;;;;4.73;4.13;;;16.40;97.50;;;;;;5051444;28;20175;-62
2024/02/15 09:49:39;;;;;;;7.37;5.80;;;16.80;97.20;;;;;;5051642;28;20417;-62
2024/02/15 09:52:11;;;;;;;8.33;5.03;;;17.20;95.70;;;;;;5051325;28;20455;-62
2024/02/15 09:54:40;;;;;;;7.73;5.03;;;17.40;94.70;;;;;;5051299;28;20400;-62
2024/02/15 09:57:07;;;;;;;4.73;2.70;;;17.80;93.90;;;;;;5050920;28;20463;-63
2024/02/15 09:59:36;;;;;;;4.10;2.57;;;18.20;92.10;;;;;;5051495;28;20442;-63
2024/02/15 10:02:02;;;;;;;3.93;2.73;;;18.70;89.30;;;;;;5051238;28;20484;-63
2024/02/15 10:04:28;;;;;;;3.90;3.60;;;19.10;86.80;;;;;;5051344;28;20506;-62
2024/02/15 10:06:54;;;;;;;2.20;2.00;;;19.40;83.90;;;;;;5051149;28;20413;-63
2024/02/15 10:09:29;;;;;;;3.63;1.63;;;19.80;83.40;;;;;;5073001;22;20553;-63
2024/02/15 10:12:00;;;;;;;2.17;1.73;;;20.30;82.70;;;;;;5051386;28;20170;-63
2024/02/15 10:14:28;;;;;;;2.03;1.40;;;20.80;76.50;;;;;;5051156;28;20921;-63
2024/02/15 10:16:55;;;;;;;4.03;1.87;;;21.30;74.30;;;;;;5050920;28;20451;-63
2024/02/15 10:19:25;;;;;;;1.47;1.10;;;21.50;68.00;;;;;;5051224;28;20428;-63
2024/02/15 10:21:57;;;;;;;2.23;1.23;;;21.70;66.70;;;;;;5051013;28;20404;-63
2024/02/15 10:24:24;;;;;;;1.07;0.97;;;21.80;65.30;;;;;;5051039;28;20392;-63
2024/02/15 10:26:50;;;;;;;0.83;0.80;;;22.10;62.10;;;;;;5050758;28;20419;-63
2024/02/15 10:29:17;;;;;;;1.23;0.70;;;22.30;60.80;;;;;;5051007;28;20436;-63
2024/02/15 10:31:54;;;;;;;1.20;0.70;;;22.50;58.80;;;;;;5051009;28;20504;-63
2024/02/15 10:34:20;;;;;;;0.73;0.73;;;22.60;58.30;;;;;;5051105;28;20414;-63
2024/02/15 10:36:46;;;;;;;1.00;0.83;;;22.60;58.10;;;;;;5050624;28;20986;-63
2024/02/15 10:39:19;;;;;;;1.73;0.80;;;22.90;56.30;;;;;;5050939;28;20432;-63
2024/02/15 10:41:52;;;;;;;1.83;1.13;;;23.20;55.80;;;;;;5050617;28;20184;-63
2024/02/15 10:44:19;;;;;;;0.93;0.87;;;23.40;55.20;;;;;;5050771;28;20439;-63
2024/02/15 10:46:53;;;;;;;0.80;0.80;;;23.40;54.40;;;;;;5052679;28;20445;-63
2024/02/15 10:49:21;;;;;;;1.63;0.90;;;23.40;54.70;;;;;;5044200;28;20419;-63
2024/02/15 10:52:06;;;;;;;1.23;0.80;;;23.30;52.70;;;;;;5034807;28;20376;-63
2024/02/15 10:54:37;;;;;;;0.80;0.80;;;23.20;53.30;;;;;;5034826;28;20402;-63
2024/02/15 10:57:06;;;;;;;0.80;0.80;;;23.10;52.80;;;;;;5034378;28;20797;-63
2024/02/15 10:59:38;;;;;;;0.90;0.80;;;22.90;53.10;;;;;;5034436;28;20542;-63
2024/02/15 11:02:22;;;;;;;1.00;0.70;;;22.70;53.00;;;;;;5034646;28;20774;-63
2024/02/15 11:04:53;;;;;;;1.03;0.73;;;22.40;52.00;;;;;;5034701;28;20496;-63
2024/02/15 11:07:21;;;;;;;2.03;1.27;;;22.10;52.60;;;;;;5033959;28;20423;-63
2024/02/15 11:09:47;;;;;;;2.20;0.83;;;21.80;52.70;;;;;;5034421;28;20396;-63
2024/02/15 11:12:14;;;;;;;0.93;0.90;;;21.40;53.00;;;;;;5034312;28;20394;-63
2024/02/15 11:14:44;;;;;;;1.03;0.90;;;21.30;55.60;;;;;;5033926;28;20182;-63
2024/02/15 11:17:13;;;;;;;1.23;0.93;;;21.00;55.60;;;;;;5033975;28;20499;-63
2024/02/15 11:19:47;;;;;;;1.50;0.90;;;20.80;54.50;;;;;;5034100;28;20419;-63
2024/02/15 11:22:16;;;;;;;1.00;1.00;;;20.60;54.50;;;;;;5034194;28;20391;-63
2024/02/15 11:24:51;;;;;;;0.87;0.83;;;20.20;55.00;;;;;;5033983;28;20406;-63
2024/02/15 11:27:30;;;;;;;1.97;1.30;;;19.90;56.20;;;;;;5033550;28;20933;-63
2024/02/15 11:30:10;;;;;;;1.83;1.30;;;19.70;56.50;;;;;;5034081;28;20439;-63
2024/02/15 11:32:39;;;;;;;1.27;1.00;;;19.40;58.30;;;;;;5034215;28;20467;-63
2024/02/15 11:35:24;;;;;;;3.13;1.07;;;19.30;59.50;;;;;;5033941;28;20421;-63
2024/02/15 11:40:22;;;;;;;1.20;1.07;;;19.30;58.10;;;;;;5034113;28;20485;-62
2024/02/15 11:42:53;;;;;;;0.73;0.73;;;19.20;57.40;;;;;;5033847;28;20181;-63
2024/02/15 11:45:19;;;;;;;0.90;0.73;;;19.00;57.80;;;;;;5033759;28;20778;-62
2024/02/15 11:47:50;;;;;;;0.90;0.60;;;18.70;57.80;;;;;;5033347;28;20443;-63
2024/02/15 11:50:18;;;;;;;0.60;0.60;;;18.40;58.60;;;;;;5033718;28;20416;-62
2024/02/15 11:52:51;;;;;;;0.73;0.70;;;18.20;62.30;;;;;;5033830;28;20408;-62
2024/02/15 11:55:21;;;;;;;2.60;0.73;;;18.00;62.00;;;;;;5033712;28;20519;-63
2024/02/15 11:58:04;;;;;;;0.97;0.80;;;17.80;62.20;;;;;;5032044;28;20542;-62
2024/02/15 12:19:55;;;;;;;0.70;0.70;;;18.00;71.10;;;;;;5033280;28;20516;-63
2024/02/15 12:22:22;;;;;;;1.23;1.07;;;18.00;67.40;;;;;;5033170;28;20816;-63
2024/02/15 12:24:59;;;;;;;1.17;1.07;;;18.20;71.60;;;;;;5033195;28;20444;-63
2024/02/15 12:27:28;;;;;;;1.10;1.00;;;18.10;73.60;;;;;;5032790;28;20416;-63
2024/02/15 12:29:58;;;;;;;0.80;0.80;;;18.10;69.00;;;;;;5045772;28;20439;-63
2024/02/15 12:32:26;;;;;;;1.10;1.00;;;18.30;68.90;;;;;;5052941;28;20761;-63
2024/02/15 12:34:54;;;;;;;0.87;0.83;;;18.40;67.20;;;;;;5052806;28;20419;-63
2024/02/15 12:37:21;;;;;;;0.90;0.90;;;18.50;68.70;;;;;;5052342;28;20458;-63
2024/02/15 12:39:48;;;;;;;0.87;0.87;;;18.40;66.70;;;;;;5052661;28;20464;-63
2024/02/15 12:42:16;;;;;;;1.10;1.00;;;18.40;63.20;;;;;;5052536;28;20992;-63
2024/02/15 12:44:48;;;;;;;1.50;1.03;;;18.30;61.50;;;;;;5052673;28;20416;-62
2024/02/15 12:47:24;;;;;;;0.97;0.97;;;18.20;61.10;;;;;;5052164;28;20422;-63
2024/02/15 12:49:51;;;;;;;2.07;1.20;;;18.20;64.70;;;;;;5052600;28;20396;-63
2024/02/15 12:52:35;;;;;;;1.00;0.87;;;18.30;66.60;;;;;;5052424;28;20539;-63
2024/02/15 12:55:11;;;;;;;2.70;1.10;;;18.30;65.70;;;;;;5052547;28;20443;-62
2024/02/15 12:57:40;;;;;;;2.00;1.57;;;18.30;64.30;;;;;;5051923;28;20542;-63
2024/02/15 13:00:11;;;;;;;1.40;0.90;;;18.30;61.60;;;;;;5052334;28;20416;-63
2024/02/15 13:02:40;;;;;;;1.93;1.03;;;18.20;68.80;;;;;;5052046;28;20425;-63
2024/02/15 13:05:09;;;;;;;2.90;1.30;;;18.20;67.00;;;;;;5052260;28;20432;-63
2024/02/15 13:07:38;;;;;;;1.97;1.40;;;17.70;62.30;;;;;;5051738;28;20828;-62
2024/02/15 13:10:07;;;;;;;2.00;1.23;;;17.50;61.60;;;;;;5052100;28;20412;-62
2024/02/15 13:12:37;;;;;;;0.97;0.97;;;17.60;61.80;;;;;;5051788;28;20414;-62
2024/02/15 13:15:06;;;;;;;1.97;1.33;;;17.60;63.50;;;;;;5051787;28;20506;-62
2024/02/15 13:17:33;;;;;;;1.67;1.20;;;17.70;63.90;;;;;;5051572;28;20443;-63
2024/02/15 13:20:05;;;;;;;1.87;1.70;;;17.40;61.90;;;;;;5051881;28;20922;-62
2024/02/15 13:22:32;;;;;;;1.33;1.23;;;17.20;59.10;;;;;;5051944;28;20412;-62
2024/02/15 13:24:58;;;;;;;1.43;1.00;;;17.30;62.90;;;;;;5051834;28;20414;-63
2024/02/15 13:27:23;;;;;;;1.33;1.00;;;17.40;63.10;;;;;;5051415;28;20411;-63
2024/02/15 13:29:53;;;;;;;2.00;1.13;;;17.50;64.80;;;;;;5051797;28;20199;-62